createdAt,value
2023-02-11T00:01:29.741Z,99756.69
2023-02-11T00:03:59.541Z,99767.50
2023-02-11T00:06:29.840Z,99757.50
2023-02-11T00:08:58.043Z,99754.78
2023-02-11T00:11:30.330Z,99761.03
2023-02-11T00:14:01.256Z,99754.97
2023-02-11T00:16:31.264Z,99753.97
2023-02-11T00:19:00.814Z,99748.22
2023-02-11T00:21:28.942Z,99742.41
2023-02-11T00:23:59.872Z,99741.03
2023-02-11T00:26:30.650Z,99719.31
2023-02-11T00:29:00.898Z,99734.59
2023-02-11T00:31:29.568Z,99740.38
2023-02-11T00:33:57.877Z,99717.72
2023-02-11T00:36:29.378Z,99737.81
2023-02-11T00:38:58.651Z,99716.56
2023-02-11T00:41:27.109Z,99718.69
2023-02-11T00:43:55.325Z,99716.03
2023-02-11T00:46:24.894Z,99711.28
2023-02-11T00:48:55.065Z,99712.00
2023-02-11T00:51:23.143Z,99723.53
2023-02-11T00:53:51.704Z,99729.63
2023-02-11T00:56:19.756Z,99733.06
2023-02-11T00:58:47.773Z,99726.47
2023-02-11T01:01:16.175Z,99718.16
2023-02-11T01:03:45.537Z,99723.88
2023-02-11T01:06:13.852Z,99717.13
2023-02-11T01:08:41.886Z,99718.97
2023-02-11T01:11:14.765Z,99716.63
2023-02-11T01:13:44.812Z,99720.19
2023-02-11T01:16:13.426Z,99703.88
2023-02-11T01:18:44.402Z,99714.34
2023-02-11T01:21:13.893Z,99714.22
2023-02-11T01:23:41.956Z,99721.66
2023-02-11T01:26:10.079Z,99703.44
2023-02-11T01:28:38.459Z,99694.69
2023-02-11T01:31:06.544Z,99689.44
2023-02-11T01:33:34.867Z,99674.09
2023-02-11T01:36:03.785Z,99706.81
2023-02-11T01:38:34.084Z,99702.47
2023-02-11T01:41:03.541Z,99712.56
2023-02-11T01:43:35.710Z,99717.47
2023-02-11T01:46:21.116Z,99699.81
2023-02-11T01:48:52.804Z,99707.34
2023-02-11T01:51:25.294Z,99680.94
2023-02-11T01:54:13.519Z,99716.44
2023-02-11T01:57:03.297Z,99715.78
2023-02-11T01:59:34.796Z,99713.09
2023-02-11T02:02:09.187Z,99713.09
2023-02-11T02:04:44.794Z,99700.63
2023-02-11T02:07:18.884Z,99705.00
2023-02-11T02:09:54.207Z,99705.84
2023-02-11T02:12:22.250Z,99711.44
2023-02-11T02:14:50.303Z,99698.44
2023-02-11T02:17:30.447Z,99696.88
2023-02-11T02:20:26.067Z,99706.38
2023-02-11T02:23:17.158Z,99721.38
2023-02-11T02:26:24.482Z,99714.31
2023-02-11T02:29:34.352Z,99724.22
2023-02-11T02:32:32.176Z,99698.50
2023-02-11T02:35:11.026Z,99730.47
2023-02-11T02:37:43.463Z,99733.03
2023-02-11T02:40:16.932Z,99735.53
2023-02-11T02:42:45.958Z,99738.25
2023-02-11T02:45:15.311Z,99748.03
2023-02-11T02:47:44.678Z,99723.25
2023-02-11T02:50:16.509Z,99757.81
2023-02-11T02:52:53.662Z,99755.44
2023-02-11T02:55:33.650Z,99755.44
2023-02-11T02:58:26.338Z,99758.31
2023-02-11T03:01:02.929Z,99755.63
2023-02-11T03:03:43.282Z,99762.88
2023-02-11T03:06:18.637Z,99760.34
2023-02-11T03:08:50.447Z,99774.00
2023-02-11T03:11:21.617Z,99775.03
2023-02-11T03:13:51.611Z,99780.59
2023-02-11T03:16:24.075Z,99778.41
2023-02-11T03:18:58.839Z,99780.59
2023-02-11T03:21:27.878Z,99791.59
2023-02-11T03:23:59.007Z,99799.88
2023-02-11T03:26:31.536Z,99814.19
2023-02-11T03:29:08.069Z,99811.47
2023-02-11T03:31:41.519Z,99808.13
2023-02-11T03:34:15.782Z,99826.00
2023-02-11T03:36:47.708Z,99791.78
2023-02-11T03:39:21.154Z,99829.72
2023-02-11T03:41:50.946Z,99823.31
2023-02-11T03:44:21.036Z,99820.75
2023-02-11T03:46:51.826Z,99818.91
2023-02-11T03:49:24.954Z,99824.31
2023-02-11T03:51:54.410Z,99809.16
2023-02-11T03:54:30.295Z,99847.75
2023-02-11T03:57:00.432Z,99856.19
2023-02-11T03:59:28.885Z,99851.28
2023-02-11T04:01:57.728Z,99862.28
2023-02-11T04:04:27.163Z,99866.66
2023-02-11T04:06:55.176Z,99870.53
2023-02-11T04:09:23.147Z,99874.25
2023-02-11T04:11:51.094Z,99889.28
2023-02-11T04:14:19.096Z,99890.44
2023-02-11T04:16:47.112Z,99886.91
2023-02-11T04:19:15.278Z,99889.59
2023-02-11T04:21:44.645Z,99901.25
2023-02-11T04:24:12.597Z,99905.94
2023-02-11T04:26:40.571Z,99911.34
2023-02-11T04:29:08.608Z,99907.97
2023-02-11T04:31:36.667Z,99918.94
2023-02-11T04:34:04.720Z,99918.94
2023-02-11T04:36:32.700Z,99928.72
2023-02-11T04:39:02.073Z,99931.25
2023-02-11T04:41:30.047Z,99934.09
2023-02-11T04:43:58.021Z,99940.00
2023-02-11T04:46:26.011Z,99955.03
2023-02-11T04:48:54.116Z,99968.69
2023-02-11T04:51:22.174Z,99970.53
2023-02-11T04:53:50.141Z,99976.94
2023-02-11T04:56:19.425Z,99982.34
2023-02-11T04:58:47.508Z,99995.00
2023-02-11T05:01:17.298Z,99988.59
2023-02-11T05:03:45.406Z,99998.53
2023-02-11T05:06:13.700Z,99991.13
2023-02-11T05:08:42.076Z,100008.50
2023-02-11T05:11:17.009Z,100005.44
2023-02-11T05:13:46.951Z,100018.28
2023-02-11T05:16:15.967Z,100034.47
2023-02-11T05:18:45.263Z,100044.25
2023-02-11T05:21:17.387Z,100054.03
2023-02-11T05:23:46.548Z,100059.59
2023-02-11T05:26:15.419Z,100063.16
2023-02-11T05:28:43.820Z,100060.44
2023-02-11T05:31:14.822Z,100064.69
2023-02-11T05:33:43.626Z,100070.22
2023-02-11T05:36:13.444Z,100083.72
2023-02-11T05:38:43.388Z,100084.75
2023-02-11T05:41:12.201Z,100087.44
2023-02-11T05:43:40.267Z,100108.00
2023-02-11T05:46:08.675Z,100107.84
2023-02-11T05:48:38.024Z,100120.50
2023-02-11T05:51:06.398Z,100144.97
2023-02-11T05:53:34.413Z,100146.94
2023-02-11T05:56:02.982Z,100149.97
2023-02-11T05:58:30.872Z,100160.44
2023-02-11T06:00:58.910Z,100168.72
2023-02-11T06:03:26.954Z,100169.72
2023-02-11T06:05:56.410Z,100171.56
2023-02-11T06:08:24.406Z,100186.06
2023-02-11T06:10:52.456Z,100193.16
2023-02-11T06:13:20.366Z,100206.63
2023-02-11T06:15:57.566Z,100229.06
2023-02-11T06:18:26.089Z,100227.72
2023-02-11T06:20:54.016Z,100230.41
2023-02-11T06:23:23.505Z,100242.06
2023-02-11T06:25:52.155Z,100236.81
2023-02-11T06:28:20.601Z,100240.34
2023-02-11T06:30:48.695Z,100251.31
2023-02-11T06:33:17.212Z,100268.34
2023-02-11T06:35:45.143Z,100274.75
2023-02-11T06:38:13.097Z,100269.34
2023-02-11T06:40:42.817Z,100276.59
2023-02-11T06:43:10.673Z,100268.81
2023-02-11T06:45:38.683Z,100281.31
2023-02-11T06:48:06.966Z,100285.69
2023-02-11T06:50:34.999Z,100296.66
2023-02-11T06:53:03.009Z,100299.19
2023-02-11T06:55:31.051Z,100308.97
2023-02-11T06:58:00.352Z,100333.09
2023-02-11T07:00:29.099Z,100348.59
2023-02-11T07:02:57.153Z,100354.84
2023-02-11T07:05:25.327Z,100359.69
2023-02-11T07:07:53.280Z,100360.56
2023-02-11T07:10:21.179Z,100373.06
2023-02-11T07:12:49.213Z,100394.63
2023-02-11T07:15:18.768Z,100409.66
2023-02-11T07:17:46.858Z,100419.63
2023-02-11T07:20:15.740Z,100433.78
2023-02-11T07:22:43.791Z,100442.91
2023-02-11T07:25:11.815Z,100440.22
2023-02-11T07:27:39.884Z,100435.81
2023-02-11T07:30:08.687Z,100452.84
2023-02-11T07:32:38.022Z,100468.75
2023-02-11T07:35:06.775Z,100477.81
2023-02-11T07:37:35.088Z,100469.91
2023-02-11T07:40:03.421Z,100481.50
2023-02-11T07:42:31.406Z,100478.97
2023-02-11T07:44:59.400Z,100493.16
2023-02-11T07:47:27.570Z,100510.22
2023-02-11T07:49:56.927Z,100524.56
2023-02-11T07:52:24.949Z,100529.56
2023-02-11T07:54:52.951Z,100536.34
2023-02-11T07:57:20.992Z,100541.75
2023-02-11T07:59:48.946Z,100549.53
2023-02-11T08:02:16.930Z,100564.19
2023-02-11T08:04:47.058Z,100575.84
2023-02-11T08:07:17.675Z,100587.31
2023-02-11T08:09:45.916Z,100602.66
2023-02-11T08:12:13.912Z,100610.06
2023-02-11T08:14:41.897Z,100612.59
2023-02-11T08:17:09.870Z,100620.56
2023-02-11T08:19:38.126Z,100634.06
2023-02-11T08:22:06.139Z,100649.41
2023-02-11T08:24:35.438Z,100661.03
2023-02-11T08:27:03.454Z,100667.59
2023-02-11T08:29:31.518Z,100670.13
2023-02-11T08:31:59.537Z,100676.53
2023-02-11T08:34:27.609Z,100681.94
2023-02-11T08:36:56.902Z,100692.00
2023-02-11T08:39:24.830Z,100715.47
2023-02-11T08:41:56.734Z,100744.00
2023-02-11T08:44:26.839Z,100751.25
2023-02-11T08:46:54.931Z,100761.19
2023-02-11T08:49:23.296Z,100767.56
2023-02-11T08:51:51.590Z,100785.47
2023-02-11T08:54:19.622Z,100796.13
2023-02-11T08:56:51.649Z,100802.38
2023-02-11T08:59:21.217Z,100806.78
2023-02-11T09:01:49.251Z,100805.22
2023-02-11T09:04:17.538Z,100830.22
2023-02-11T09:06:46.033Z,100845.44
2023-02-11T09:09:15.952Z,100846.25
2023-02-11T09:11:45.611Z,100860.63
2023-02-11T09:14:19.481Z,100870.28
2023-02-11T09:16:49.462Z,100868.44
2023-02-11T09:19:17.888Z,100879.38
2023-02-11T09:21:45.980Z,100902.38
2023-02-11T09:24:14.024Z,100906.78
2023-02-11T09:26:44.242Z,100918.44
2023-02-11T09:29:12.600Z,100930.94
2023-02-11T09:31:40.713Z,100933.34
2023-02-11T09:34:11.678Z,100929.78
2023-02-11T09:36:41.059Z,100959.22
2023-02-11T09:39:13.062Z,100977.84
2023-02-11T09:41:55.980Z,100988.63
2023-02-11T09:44:27.422Z,100985.22
2023-02-11T09:46:59.237Z,100986.91
2023-02-11T09:49:38.024Z,100988.91
2023-02-11T09:52:09.165Z,100997.44
2023-02-11T09:54:41.555Z,101012.78
2023-02-11T09:57:26.601Z,101021.72
2023-02-11T09:59:57.155Z,101035.38
2023-02-11T10:02:31.866Z,101038.94
2023-02-11T10:05:18.616Z,101037.22
2023-02-11T10:07:53.650Z,101050.72
2023-02-11T10:10:34.606Z,101054.28
2023-02-11T10:13:19.746Z,101058.69
2023-02-11T10:15:53.188Z,101073.31
2023-02-11T10:18:47.076Z,101076.88
2023-02-11T10:21:25.891Z,101084.09
2023-02-11T10:23:57.931Z,101100.31
2023-02-11T10:26:31.965Z,101099.47
2023-02-11T10:29:03.867Z,101100.31
2023-02-11T10:31:39.053Z,101104.72
2023-02-11T10:34:08.898Z,101116.38
2023-02-11T10:36:41.099Z,101116.25
2023-02-11T10:39:14.295Z,101122.34
2023-02-11T10:41:46.131Z,101128.75
2023-02-11T10:44:25.755Z,101136.72
2023-02-11T10:46:55.115Z,101143.50
2023-02-11T10:49:38.404Z,101154.19
2023-02-11T10:52:32.029Z,101159.16
2023-02-11T10:55:03.021Z,101161.84
2023-02-11T10:57:35.865Z,101173.38
2023-02-11T11:00:21.963Z,101169.69
2023-02-11T11:02:56.283Z,101178.59
2023-02-11T11:05:31.080Z,101175.63
2023-02-11T11:08:01.645Z,101199.50
2023-02-11T11:10:43.253Z,101197.66
2023-02-11T11:13:32.423Z,101217.97
2023-02-11T11:16:19.189Z,101226.94
2023-02-11T11:18:48.792Z,101242.44
2023-02-11T11:21:20.551Z,101251.41
2023-02-11T11:23:56.101Z,101247.25
2023-02-11T11:26:25.576Z,101266.03
2023-02-11T11:28:58.690Z,101276.69
2023-02-11T11:31:31.891Z,101277.69
2023-02-11T11:34:01.948Z,101276.81
2023-02-11T11:36:36.847Z,101293.03
2023-02-11T11:39:23.314Z,101300.00
2023-02-11T11:41:56.746Z,101322.50
2023-02-11T11:44:28.867Z,101345.88
2023-02-11T11:47:16.990Z,101352.34
2023-02-11T11:49:50.222Z,101360.91
2023-02-11T11:52:29.406Z,101375.69
2023-02-11T11:55:05.816Z,101384.38
2023-02-11T11:57:38.467Z,101352.34
2023-02-11T12:00:14.858Z,101387.09
2023-02-11T12:03:11.012Z,101391.63
2023-02-11T12:05:47.460Z,101403.44
2023-02-11T12:08:22.351Z,101413.41
2023-02-11T12:11:08.378Z,101409.69
2023-02-11T12:13:44.226Z,101426.50
2023-02-11T12:16:24.964Z,101432.34
2023-02-11T12:19:21.601Z,101434.78
2023-02-11T12:21:57.503Z,101451.00
2023-02-11T12:24:42.538Z,101447.19
2023-02-11T12:27:19.598Z,101462.53
2023-02-11T12:30:00.775Z,101468.81
2023-02-11T12:32:36.859Z,101467.06
2023-02-11T12:35:23.777Z,101479.75
2023-02-11T12:38:15.919Z,101482.47
2023-02-11T12:40:47.199Z,101481.72
2023-02-11T12:43:22.074Z,101489.00
2023-02-11T12:46:14.876Z,101494.41
2023-02-11T12:49:16.310Z,101501.19
2023-02-11T12:52:01.154Z,101512.72
2023-02-11T12:54:32.757Z,101516.53
2023-02-11T12:57:04.541Z,101500.78
2023-02-11T12:59:45.583Z,101544.63
2023-02-11T13:02:24.383Z,101547.19
2023-02-11T13:04:58.373Z,101558.72
2023-02-11T13:07:32.230Z,101561.28
2023-02-11T13:10:07.736Z,101563.13
2023-02-11T13:12:55.250Z,101563.53
2023-02-11T13:15:25.936Z,101561.16
2023-02-11T13:18:01.088Z,101567.06
2023-02-11T13:20:39.486Z,101562.44
2023-02-11T13:23:17.062Z,101576.34
2023-02-11T13:25:51.586Z,101585.66
2023-02-11T13:28:30.519Z,101591.06
2023-02-11T13:31:03.600Z,101588.63
2023-02-11T13:33:37.519Z,101601.16
2023-02-11T13:36:20.300Z,101612.94
2023-02-11T13:39:03.922Z,101605.81
2023-02-11T13:41:43.580Z,101587.69
2023-02-11T13:44:25.476Z,101626.97
2023-02-11T13:47:04.752Z,101620.56
2023-02-11T13:49:37.034Z,101635.06
2023-02-11T13:52:07.503Z,101632.59
2023-02-11T13:54:38.865Z,101647.09
2023-02-11T13:57:30.889Z,101648.09
2023-02-11T14:00:01.127Z,101648.09
2023-02-11T14:02:51.472Z,101656.91
2023-02-11T14:05:52.536Z,101635.81
2023-02-11T14:08:43.294Z,101667.97
2023-02-11T14:11:45.685Z,101677.78
2023-02-11T14:14:21.762Z,101684.41
2023-02-11T14:17:30.879Z,101698.88
2023-02-11T14:20:02.124Z,101715.56
2023-02-11T14:22:41.553Z,101715.06
2023-02-11T14:25:21.508Z,101727.31
2023-02-11T14:27:55.325Z,101729.78
2023-02-11T14:30:50.032Z,101746.84
2023-02-11T14:33:43.715Z,101745.41
2023-02-11T14:36:32.464Z,101757.03
2023-02-11T14:39:10.011Z,101766.63
2023-02-11T14:41:42.913Z,101770.19
2023-02-11T14:44:16.583Z,101771.81
2023-02-11T14:46:50.043Z,101787.31
2023-02-11T14:49:27.086Z,101793.53
2023-02-11T14:51:59.872Z,101795.41
2023-02-11T14:54:29.376Z,101800.44
2023-02-11T14:57:12.867Z,101793.06
2023-02-11T14:59:41.823Z,101762.47
2023-02-11T15:02:22.978Z,101803.25
2023-02-11T15:04:51.007Z,101799.91
2023-02-11T15:07:20.335Z,101812.47
2023-02-11T15:09:51.270Z,101808.53
2023-02-11T15:12:23.696Z,101827.31
2023-02-11T15:14:55.225Z,101829.28
2023-02-11T15:17:26.726Z,101843.28
2023-02-11T15:19:57.591Z,101824.00
2023-02-11T15:22:30.246Z,101838.84
2023-02-11T15:25:04.068Z,101867.38
2023-02-11T15:27:41.073Z,101867.72
2023-02-11T15:30:26.414Z,101881.09
2023-02-11T15:32:58.785Z,101892.69
2023-02-11T15:35:29.023Z,101886.28
2023-02-11T15:37:59.564Z,101897.47
2023-02-11T15:40:29.826Z,101894.63
2023-02-11T15:42:59.027Z,101909.97
2023-02-11T15:45:32.235Z,101909.25
2023-02-11T15:48:08.076Z,101914.66
2023-02-11T15:50:40.519Z,101923.00
2023-02-11T15:53:23.330Z,101927.88
2023-02-11T15:55:54.150Z,101933.75
2023-02-11T15:58:24.001Z,101934.50
2023-02-11T16:00:59.626Z,101951.19
2023-02-11T16:03:32.653Z,101961.38
2023-02-11T16:06:19.533Z,101973.28
2023-02-11T16:09:06.469Z,101980.78
2023-02-11T16:11:36.508Z,101993.66
2023-02-11T16:14:23.135Z,101982.84
2023-02-11T16:16:55.733Z,101980.28
2023-02-11T16:19:25.884Z,101986.78
2023-02-11T16:21:56.190Z,101987.63
2023-02-11T16:24:28.572Z,101997.44
2023-02-11T16:27:00.755Z,102015.63
2023-02-11T16:29:30.453Z,102019.50
2023-02-11T16:32:08.661Z,102022.34
2023-02-11T16:34:37.291Z,102030.53
2023-02-11T16:37:06.494Z,102046.06
2023-02-11T16:39:36.075Z,102027.44
2023-02-11T16:42:07.450Z,102028.81
2023-02-11T16:44:36.002Z,102030.22
2023-02-11T16:47:06.110Z,102047.72
2023-02-11T16:49:37.335Z,102037.25
2023-02-11T16:52:09.155Z,102040.44
2023-02-11T16:54:38.629Z,102044.09
2023-02-11T16:57:12.278Z,102059.69
2023-02-11T16:59:40.415Z,102069.91
2023-02-11T17:02:15.048Z,102074.00
2023-02-11T17:04:43.402Z,102078.63
2023-02-11T17:07:11.396Z,102083.06
2023-02-11T17:09:40.824Z,102090.06
2023-02-11T17:12:08.782Z,102087.38
2023-02-11T17:14:36.700Z,102084.66
2023-02-11T17:17:04.674Z,102092.91
2023-02-11T17:19:32.686Z,102101.84
2023-02-11T17:22:00.600Z,102118.28
2023-02-11T17:24:28.728Z,102120.38
2023-02-11T17:26:57.999Z,102125.03
2023-02-11T17:29:27.109Z,102138.75
2023-02-11T17:31:55.411Z,102134.44
2023-02-11T17:34:24.147Z,102132.91
2023-02-11T17:36:52.152Z,102160.28
2023-02-11T17:39:21.130Z,102167.75
2023-02-11T17:41:49.199Z,102176.94
2023-02-11T17:44:18.730Z,102181.38
2023-02-11T17:46:46.808Z,102173.63
2023-02-11T17:49:15.791Z,102189.47
2023-02-11T17:51:43.792Z,102175.34
2023-02-11T17:54:14.296Z,102178.91
2023-02-11T17:56:43.202Z,102166.50
2023-02-11T17:59:13.476Z,102171.03
2023-02-11T18:01:44.725Z,102109.88
2023-02-11T18:04:17.498Z,102174.06
2023-02-11T18:06:46.223Z,102175.03
2023-02-11T18:09:14.455Z,102205.59
2023-02-11T18:11:43.077Z,102201.19
2023-02-11T18:14:11.573Z,102199.22
2023-02-11T18:16:43.056Z,102201.94
2023-02-11T18:19:13.495Z,102204.09
2023-02-11T18:21:41.633Z,102198.28
2023-02-11T18:24:09.740Z,102206.81
2023-02-11T18:26:37.714Z,102218.03
2023-02-11T18:29:07.034Z,102226.47
2023-02-11T18:31:35.981Z,102214.25
2023-02-11T18:34:05.585Z,102198.38
2023-02-11T18:36:35.778Z,102224.59
2023-02-11T18:39:04.881Z,102226.91
2023-02-11T18:41:33.073Z,102195.16
2023-02-11T18:44:03.206Z,102216.44
2023-02-11T18:46:31.687Z,102222.78
2023-02-11T18:48:59.714Z,102233.69
2023-02-11T18:51:27.977Z,102239.31
2023-02-11T18:53:57.287Z,102231.75
2023-02-11T18:56:27.797Z,102235.94
2023-02-11T18:58:56.549Z,102244.78
2023-02-11T19:01:27.397Z,102234.78
2023-02-11T19:03:57.362Z,102239.31
2023-02-11T19:06:27.274Z,102240.16
2023-02-11T19:08:59.705Z,102245.44
2023-02-11T19:11:43.322Z,102254.19
2023-02-11T19:14:11.746Z,102240.38
2023-02-11T19:16:40.363Z,102258.94
2023-02-11T19:19:09.032Z,102259.91
2023-02-11T19:21:37.281Z,102265.41
2023-02-11T19:24:09.308Z,102268.09
2023-02-11T19:26:38.168Z,102260.13
2023-02-11T19:29:06.553Z,102267.16
2023-02-11T19:31:34.991Z,102272.97
2023-02-11T19:34:03.502Z,102265.94
2023-02-11T19:36:32.208Z,102268.97
2023-02-11T19:39:01.440Z,102263.59
2023-02-11T19:41:31.760Z,102269.19
2023-02-11T19:43:59.699Z,102269.50
2023-02-11T19:46:29.636Z,102265.81
2023-02-11T19:48:57.662Z,102274.91
2023-02-11T19:51:25.693Z,102272.31
2023-02-11T19:53:53.974Z,102260.97
2023-02-11T19:56:22.412Z,102257.09
2023-02-11T19:58:51.761Z,102268.44
2023-02-11T20:01:22.028Z,102271.13
2023-02-11T20:03:51.017Z,102292.03
2023-02-11T20:06:21.614Z,102292.25
2023-02-11T20:08:49.643Z,102291.69
2023-02-11T20:11:18.479Z,102296.97
2023-02-11T20:13:46.434Z,102302.38
2023-02-11T20:16:17.723Z,102309.38
2023-02-11T20:18:47.354Z,102304.84
2023-02-11T20:21:18.087Z,102317.94
2023-02-11T20:23:46.969Z,102287.69
2023-02-11T20:26:16.709Z,102310.72
2023-02-11T20:28:45.260Z,102313.22
2023-02-11T20:31:13.516Z,102322.25
2023-02-11T20:33:43.562Z,102317.06
2023-02-11T20:36:14.618Z,102324.28
2023-02-11T20:38:43.248Z,102322.59
2023-02-11T20:41:14.424Z,102325.91
2023-02-11T20:43:43.075Z,102332.38
2023-02-11T20:46:11.023Z,102332.94
2023-02-11T20:48:39.110Z,102343.72
2023-02-11T20:51:10.288Z,102349.03
2023-02-11T20:53:40.446Z,102353.00
2023-02-11T20:56:10.660Z,102355.16
2023-02-11T20:58:39.606Z,102353.59
2023-02-11T21:01:09.176Z,102360.75
2023-02-11T21:03:37.230Z,102350.81
2023-02-11T21:06:05.593Z,102362.50
2023-02-11T21:08:34.957Z,102347.66
2023-02-11T21:11:02.966Z,102356.63
2023-02-11T21:13:31.078Z,102357.59
2023-02-11T21:15:59.150Z,102363.09
2023-02-11T21:18:27.219Z,102364.81
2023-02-11T21:20:55.994Z,102370.31
2023-02-11T21:23:24.841Z,102379.25
2023-02-11T21:25:54.882Z,102378.13
2023-02-11T21:28:26.195Z,102381.75
2023-02-11T21:30:54.957Z,102380.91
2023-02-11T21:33:23.586Z,102381.00
2023-02-11T21:35:55.598Z,102375.50
2023-02-11T21:38:24.395Z,102371.84
2023-02-11T21:40:52.670Z,102371.78
2023-02-11T21:43:22.779Z,102376.16
2023-02-11T21:45:52.445Z,102377.03
2023-02-11T21:48:20.563Z,102372.06
2023-02-11T21:50:48.875Z,102373.59
2023-02-11T21:53:16.994Z,102395.19
2023-02-11T21:55:44.976Z,102391.63
2023-02-11T21:58:14.585Z,102391.72
2023-02-11T22:00:43.986Z,102377.88
2023-02-11T22:03:13.082Z,102388.25
2023-02-11T22:05:41.804Z,102392.72
2023-02-11T22:08:09.752Z,102398.94
2023-02-11T22:10:38.947Z,102395.84
2023-02-11T22:13:06.899Z,102402.09
2023-02-11T22:15:34.859Z,102394.00
2023-02-11T22:18:04.183Z,102394.97
2023-02-11T22:20:32.255Z,102399.28
2023-02-11T22:23:00.286Z,102397.28
2023-02-11T22:25:28.288Z,102393.38
2023-02-11T22:27:56.585Z,102394.16
2023-02-11T22:30:24.550Z,102396.75
2023-02-11T22:32:52.608Z,102391.56
2023-02-11T22:35:21.949Z,102398.22
2023-02-11T22:37:49.902Z,102400.28
2023-02-11T22:40:18.035Z,102397.78
2023-02-11T22:42:46.087Z,102400.91
2023-02-11T22:45:14.062Z,102398.56
2023-02-11T22:47:42.090Z,102380.97
2023-02-11T22:50:10.578Z,102409.50
2023-02-11T22:52:39.848Z,102418.16
2023-02-11T22:55:08.170Z,102422.47
2023-02-11T22:57:36.187Z,102419.69
2023-02-11T23:00:05.561Z,102426.56
2023-02-11T23:02:34.397Z,102428.31
2023-02-11T23:05:02.650Z,102432.63
2023-02-11T23:07:30.656Z,102422.72
2023-02-11T23:09:59.969Z,102418.91
2023-02-11T23:12:28.061Z,102425.94
2023-02-11T23:14:56.066Z,102428.53
2023-02-11T23:17:24.788Z,102434.78
2023-02-11T23:19:52.926Z,102438.47
2023-02-11T23:22:20.812Z,102430.56
2023-02-11T23:24:48.737Z,102428.66
2023-02-11T23:27:18.016Z,102432.97
2023-02-11T23:29:46.022Z,102429.81
2023-02-11T23:32:14.132Z,102416.66
2023-02-11T23:34:42.045Z,102409.63
2023-02-11T23:37:10.362Z,102431.44
2023-02-11T23:39:38.539Z,102418.69
2023-02-11T23:42:06.971Z,102408.63
2023-02-11T23:44:36.322Z,102410.38
2023-02-11T23:47:04.752Z,102412.66
2023-02-11T23:49:32.862Z,102415.56
2023-02-11T23:52:00.854Z,102415.66
2023-02-11T23:54:29.030Z,102408.00
2023-02-11T23:56:57.104Z,102424.06
2023-02-11T23:59:25.170Z,102415.84
